Aviation Digital Data Service (ADDS)

Output produced by METARs form (0951 UTC 23 April 2017)
found at http://www.aviationweather.gov/adds/metars/
 
LCRA 230850Z 27025G41KT 9999 FEW035 18/05 Q1013 NOSIG
TAF LCRA 230728Z 2309/2403 27022KT 9999 FEW035 
     PROB40 
     TEMPO 2309/2315 28025G35KT 
     BECMG 2320/2323 30007KT
       
LCEN 230920Z 30033KT 9999 FEW025 20/M01 Q1011 NOSIG RMK RWY11 31031G41KT
TAF LCEN 221640Z 2218/2318 30015KT CAVOK
       
LCLK 230930Z 23026G36KT 9999 FEW025 22/05 Q1011 NOSIG
TAF LCLK 230530Z 2306/2406 32012KT 9999 FEW030
       
LCPH 230930Z 28022KT 9999 FEW030 18/09 Q1015
TAF LCPH 230530Z 2306/2406 30025G35KT 9999 FEW030 
     BECMG 2320/2324 33008KT
       
LCRA 230850Z 27025G41KT 9999 FEW035 18/05 Q1013 NOSIG
TAF LCRA 230728Z 2309/2403 27022KT 9999 FEW035 
     PROB40 
     TEMPO 2309/2315 28025G35KT 
     BECMG 2320/2323 30007KT
       
LCLK 230930Z 23026G36KT 9999 FEW025 22/05 Q1011 NOSIG
TAF LCLK 230530Z 2306/2406 32012KT 9999 FEW030
       
LCPH 230930Z 28022KT 9999 FEW030 18/09 Q1015
TAF LCPH 230530Z 2306/2406 30025G35KT 9999 FEW030 
     BECMG 2320/2324 33008KT